sensor_id;sensor_type;location;lat;lon;timestamp;P1;durP1;ratioP1;P2;durP2;ratioP2
5428;SDS011;2737;52.386;9.980;2022-07-23T00:01:19;9.40;;;5.10;;
5428;SDS011;2737;52.386;9.980;2022-07-23T00:03:47;6.40;;;4.63;;
5428;SDS011;2737;52.386;9.980;2022-07-23T00:06:14;7.20;;;5.00;;
5428;SDS011;2737;52.386;9.980;2022-07-23T00:08:43;6.47;;;4.77;;
5428;SDS011;2737;52.386;9.980;2022-07-23T00:11:10;18.10;;;7.00;;
5428;SDS011;2737;52.386;9.980;2022-07-23T00:13:37;9.80;;;5.73;;
5428;SDS011;2737;52.386;9.980;2022-07-23T00:16:04;10.17;;;5.60;;
5428;SDS011;2737;52.386;9.980;2022-07-23T00:18:32;7.60;;;5.07;;
5428;SDS011;2737;52.386;9.980;2022-07-23T00:20:59;10.33;;;5.27;;
5428;SDS011;2737;52.386;9.980;2022-07-23T00:23:26;8.50;;;6.07;;
5428;SDS011;2737;52.386;9.980;2022-07-23T00:25:55;11.60;;;6.00;;
5428;SDS011;2737;52.386;9.980;2022-07-23T00:28:22;14.67;;;5.97;;
5428;SDS011;2737;52.386;9.980;2022-07-23T00:30:49;9.63;;;5.50;;
5428;SDS011;2737;52.386;9.980;2022-07-23T00:33:17;8.60;;;5.87;;
5428;SDS011;2737;52.386;9.980;2022-07-23T00:35:44;7.60;;;5.50;;
5428;SDS011;2737;52.386;9.980;2022-07-23T00:38:11;8.30;;;5.10;;
5428;SDS011;2737;52.386;9.980;2022-07-23T00:40:38;8.70;;;5.37;;
5428;SDS011;2737;52.386;9.980;2022-07-23T00:43:07;7.73;;;4.90;;
5428;SDS011;2737;52.386;9.980;2022-07-23T00:45:35;7.60;;;5.50;;
5428;SDS011;2737;52.386;9.980;2022-07-23T00:48:02;9.67;;;5.50;;
5428;SDS011;2737;52.386;9.980;2022-07-23T00:50:29;7.43;;;5.20;;
5428;SDS011;2737;52.386;9.980;2022-07-23T00:52:56;11.13;;;4.90;;
5428;SDS011;2737;52.386;9.980;2022-07-23T00:55:23;10.23;;;4.63;;
5428;SDS011;2737;52.386;9.980;2022-07-23T00:57:50;7.30;;;4.97;;
5428;SDS011;2737;52.386;9.980;2022-07-23T01:00:20;6.47;;;4.73;;
5428;SDS011;2737;52.386;9.980;2022-07-23T01:02:47;9.67;;;5.07;;
5428;SDS011;2737;52.386;9.980;2022-07-23T01:05:15;12.13;;;5.77;;
5428;SDS011;2737;52.386;9.980;2022-07-23T01:07:46;9.30;;;4.83;;
5428;SDS011;2737;52.386;9.980;2022-07-23T01:10:14;7.20;;;4.50;;
5428;SDS011;2737;52.386;9.980;2022-07-23T01:13:00;7.10;;;4.87;;
5428;SDS011;2737;52.386;9.980;2022-07-23T01:15:31;8.47;;;4.97;;
5428;SDS011;2737;52.386;9.980;2022-07-23T01:17:58;6.57;;;4.23;;
5428;SDS011;2737;52.386;9.980;2022-07-23T01:20:25;13.53;;;4.47;;
5428;SDS011;2737;52.386;9.980;2022-07-23T01:22:54;5.37;;;4.30;;
5428;SDS011;2737;52.386;9.980;2022-07-23T01:25:21;7.37;;;4.53;;
5428;SDS011;2737;52.386;9.980;2022-07-23T01:27:49;7.00;;;4.77;;
5428;SDS011;2737;52.386;9.980;2022-07-23T01:30:17;9.13;;;5.30;;
5428;SDS011;2737;52.386;9.980;2022-07-23T01:32:44;13.50;;;5.50;;
5428;SDS011;2737;52.386;9.980;2022-07-23T01:35:11;10.13;;;4.83;;
5428;SDS011;2737;52.386;9.980;2022-07-23T01:37:39;6.53;;;4.50;;
5428;SDS011;2737;52.386;9.980;2022-07-23T01:40:07;6.30;;;4.70;;
5428;SDS011;2737;52.386;9.980;2022-07-23T01:42:35;9.50;;;4.37;;
5428;SDS011;2737;52.386;9.980;2022-07-23T01:45:03;9.57;;;4.77;;
5428;SDS011;2737;52.386;9.980;2022-07-23T01:47:30;5.73;;;5.00;;
5428;SDS011;2737;52.386;9.980;2022-07-23T01:49:57;7.03;;;5.10;;
5428;SDS011;2737;52.386;9.980;2022-07-23T01:52:24;13.23;;;5.40;;
5428;SDS011;2737;52.386;9.980;2022-07-23T01:54:51;6.63;;;5.33;;
5428;SDS011;2737;52.386;9.980;2022-07-23T01:57:20;8.03;;;5.03;;
5428;SDS011;2737;52.386;9.980;2022-07-23T01:59:47;9.07;;;5.90;;
5428;SDS011;2737;52.386;9.980;2022-07-23T02:02:14;8.20;;;5.77;;
5428;SDS011;2737;52.386;9.980;2022-07-23T02:04:41;13.20;;;5.30;;
5428;SDS011;2737;52.386;9.980;2022-07-23T02:07:08;10.27;;;6.10;;
5428;SDS011;2737;52.386;9.980;2022-07-23T02:09:35;10.03;;;5.30;;
5428;SDS011;2737;52.386;9.980;2022-07-23T02:12:02;8.70;;;5.60;;
5428;SDS011;2737;52.386;9.980;2022-07-23T02:14:31;9.47;;;5.67;;
5428;SDS011;2737;52.386;9.980;2022-07-23T02:16:58;10.73;;;6.30;;
5428;SDS011;2737;52.386;9.980;2022-07-23T02:19:25;10.90;;;6.33;;
5428;SDS011;2737;52.386;9.980;2022-07-23T02:21:52;9.30;;;6.20;;
5428;SDS011;2737;52.386;9.980;2022-07-23T02:24:20;10.17;;;6.20;;
5428;SDS011;2737;52.386;9.980;2022-07-23T02:26:47;11.00;;;6.17;;
5428;SDS011;2737;52.386;9.980;2022-07-23T02:29:14;10.10;;;6.30;;
5428;SDS011;2737;52.386;9.980;2022-07-23T02:31:43;12.23;;;6.70;;
5428;SDS011;2737;52.386;9.980;2022-07-23T02:34:10;14.27;;;6.47;;
5428;SDS011;2737;52.386;9.980;2022-07-23T02:36:37;10.47;;;5.87;;
5428;SDS011;2737;52.386;9.980;2022-07-23T02:39:05;12.40;;;6.13;;
5428;SDS011;2737;52.386;9.980;2022-07-23T02:41:32;9.63;;;6.23;;
5428;SDS011;2737;52.386;9.980;2022-07-23T02:43:59;11.60;;;6.20;;
5428;SDS011;2737;52.386;9.980;2022-07-23T02:46:26;14.83;;;6.30;;
5428;SDS011;2737;52.386;9.980;2022-07-23T02:48:54;8.90;;;5.73;;
5428;SDS011;2737;52.386;9.980;2022-07-23T02:51:21;19.50;;;5.60;;
5428;SDS011;2737;52.386;9.980;2022-07-23T02:53:48;13.50;;;6.93;;
5428;SDS011;2737;52.386;9.980;2022-07-23T02:56:15;10.63;;;6.63;;
5428;SDS011;2737;52.386;9.980;2022-07-23T02:58:42;9.67;;;6.17;;
5428;SDS011;2737;52.386;9.980;2022-07-23T03:01:09;8.10;;;5.73;;
5428;SDS011;2737;52.386;9.980;2022-07-23T03:03:36;7.73;;;6.07;;
5428;SDS011;2737;52.386;9.980;2022-07-23T03:06:05;11.23;;;5.70;;
5428;SDS011;2737;52.386;9.980;2022-07-23T03:08:32;12.70;;;6.07;;
5428;SDS011;2737;52.386;9.980;2022-07-23T03:10:59;18.03;;;6.03;;
5428;SDS011;2737;52.386;9.980;2022-07-23T03:13:26;12.60;;;6.10;;
5428;SDS011;2737;52.386;9.980;2022-07-23T03:15:54;10.83;;;5.63;;
5428;SDS011;2737;52.386;9.980;2022-07-23T03:18:21;9.20;;;6.23;;
5428;SDS011;2737;52.386;9.980;2022-07-23T03:20:49;16.20;;;6.23;;
5428;SDS011;2737;52.386;9.980;2022-07-23T03:23:17;14.43;;;6.87;;
5428;SDS011;2737;52.386;9.980;2022-07-23T03:25:44;13.33;;;6.50;;
5428;SDS011;2737;52.386;9.980;2022-07-23T03:28:13;11.80;;;6.30;;
5428;SDS011;2737;52.386;9.980;2022-07-23T03:30:40;9.23;;;6.20;;
5428;SDS011;2737;52.386;9.980;2022-07-23T03:33:07;8.50;;;6.13;;
5428;SDS011;2737;52.386;9.980;2022-07-23T03:35:34;13.50;;;6.53;;
5428;SDS011;2737;52.386;9.980;2022-07-23T03:38:01;9.60;;;6.03;;
5428;SDS011;2737;52.386;9.980;2022-07-23T03:40:30;11.30;;;6.40;;
5428;SDS011;2737;52.386;9.980;2022-07-23T03:42:57;8.63;;;6.00;;
5428;SDS011;2737;52.386;9.980;2022-07-23T03:45:24;13.00;;;6.23;;
5428;SDS011;2737;52.386;9.980;2022-07-23T03:47:51;16.03;;;6.60;;
5428;SDS011;2737;52.386;9.980;2022-07-23T03:50:18;8.57;;;6.47;;
5428;SDS011;2737;52.386;9.980;2022-07-23T03:52:46;11.20;;;6.40;;
5428;SDS011;2737;52.386;9.980;2022-07-23T03:55:13;8.70;;;6.23;;
5428;SDS011;2737;52.386;9.980;2022-07-23T03:57:41;10.27;;;6.40;;
5428;SDS011;2737;52.386;9.980;2022-07-23T04:00:09;10.63;;;7.33;;
5428;SDS011;2737;52.386;9.980;2022-07-23T04:02:38;14.10;;;7.30;;
5428;SDS011;2737;52.386;9.980;2022-07-23T04:05:06;10.33;;;6.90;;
5428;SDS011;2737;52.386;9.980;2022-07-23T04:07:33;11.70;;;6.90;;
5428;SDS011;2737;52.386;9.980;2022-07-23T04:10:00;10.30;;;7.23;;
5428;SDS011;2737;52.386;9.980;2022-07-23T04:12:27;12.50;;;6.83;;
5428;SDS011;2737;52.386;9.980;2022-07-23T04:14:56;12.10;;;7.30;;
5428;SDS011;2737;52.386;9.980;2022-07-23T04:17:23;14.00;;;7.00;;
5428;SDS011;2737;52.386;9.980;2022-07-23T04:19:50;21.00;;;8.00;;
5428;SDS011;2737;52.386;9.980;2022-07-23T04:22:17;15.93;;;8.20;;
5428;SDS011;2737;52.386;9.980;2022-07-23T04:24:44;14.73;;;7.77;;
5428;SDS011;2737;52.386;9.980;2022-07-23T04:27:11;10.77;;;7.10;;
5428;SDS011;2737;52.386;9.980;2022-07-23T04:29:39;19.53;;;7.67;;
5428;SDS011;2737;52.386;9.980;2022-07-23T04:32:07;12.33;;;7.70;;
5428;SDS011;2737;52.386;9.980;2022-07-23T04:34:34;10.30;;;7.63;;
5428;SDS011;2737;52.386;9.980;2022-07-23T04:37:01;13.43;;;8.33;;
5428;SDS011;2737;52.386;9.980;2022-07-23T04:39:28;12.57;;;9.27;;
5428;SDS011;2737;52.386;9.980;2022-07-23T04:41:55;18.03;;;9.00;;
5428;SDS011;2737;52.386;9.980;2022-07-23T04:44:22;13.40;;;9.60;;
5428;SDS011;2737;52.386;9.980;2022-07-23T04:46:50;12.03;;;8.60;;
5428;SDS011;2737;52.386;9.980;2022-07-23T04:49:18;14.00;;;7.93;;
5428;SDS011;2737;52.386;9.980;2022-07-23T04:51:45;14.30;;;9.17;;
5428;SDS011;2737;52.386;9.980;2022-07-23T04:54:12;16.40;;;8.90;;
5428;SDS011;2737;52.386;9.980;2022-07-23T04:56:39;16.60;;;9.60;;
5428;SDS011;2737;52.386;9.980;2022-07-23T04:59:06;12.47;;;8.30;;
5428;SDS011;2737;52.386;9.980;2022-07-23T05:01:33;14.87;;;9.90;;
5428;SDS011;2737;52.386;9.980;2022-07-23T05:04:00;14.60;;;7.90;;
5428;SDS011;2737;52.386;9.980;2022-07-23T05:06:29;11.73;;;8.33;;
5428;SDS011;2737;52.386;9.980;2022-07-23T05:08:56;12.37;;;9.07;;
5428;SDS011;2737;52.386;9.980;2022-07-23T05:11:23;11.93;;;8.20;;
5428;SDS011;2737;52.386;9.980;2022-07-23T05:13:50;13.30;;;8.30;;
5428;SDS011;2737;52.386;9.980;2022-07-23T05:16:17;10.10;;;8.50;;
5428;SDS011;2737;52.386;9.980;2022-07-23T05:18:44;20.13;;;9.60;;
5428;SDS011;2737;52.386;9.980;2022-07-23T05:21:11;12.47;;;9.00;;
5428;SDS011;2737;52.386;9.980;2022-07-23T05:23:40;14.20;;;8.77;;
5428;SDS011;2737;52.386;9.980;2022-07-23T05:26:07;12.30;;;8.50;;
5428;SDS011;2737;52.386;9.980;2022-07-23T05:28:34;16.97;;;9.20;;
5428;SDS011;2737;52.386;9.980;2022-07-23T05:31:01;15.00;;;8.70;;
5428;SDS011;2737;52.386;9.980;2022-07-23T05:33:28;15.67;;;9.63;;
5428;SDS011;2737;52.386;9.980;2022-07-23T05:35:59;15.10;;;9.37;;
5428;SDS011;2737;52.386;9.980;2022-07-23T05:38:27;17.93;;;9.20;;
5428;SDS011;2737;52.386;9.980;2022-07-23T05:40:56;21.50;;;10.03;;
5428;SDS011;2737;52.386;9.980;2022-07-23T05:43:24;14.30;;;9.47;;
5428;SDS011;2737;52.386;9.980;2022-07-23T05:45:51;13.60;;;9.30;;
5428;SDS011;2737;52.386;9.980;2022-07-23T05:48:18;12.47;;;8.77;;
5428;SDS011;2737;52.386;9.980;2022-07-23T05:50:46;15.30;;;8.90;;
5428;SDS011;2737;52.386;9.980;2022-07-23T05:53:13;13.10;;;8.73;;
5428;SDS011;2737;52.386;9.980;2022-07-23T05:55:40;16.77;;;8.53;;
5428;SDS011;2737;52.386;9.980;2022-07-23T05:58:09;16.80;;;8.40;;
5428;SDS011;2737;52.386;9.980;2022-07-23T06:00:36;11.27;;;7.30;;
5428;SDS011;2737;52.386;9.980;2022-07-23T06:03:03;13.63;;;7.63;;
5428;SDS011;2737;52.386;9.980;2022-07-23T06:05:30;11.90;;;7.50;;
5428;SDS011;2737;52.386;9.980;2022-07-23T06:07:57;15.53;;;7.10;;
5428;SDS011;2737;52.386;9.980;2022-07-23T06:10:25;8.13;;;6.47;;
5428;SDS011;2737;52.386;9.980;2022-07-23T06:12:52;9.60;;;6.30;;
5428;SDS011;2737;52.386;9.980;2022-07-23T06:15:20;8.40;;;6.03;;
5428;SDS011;2737;52.386;9.980;2022-07-23T06:17:47;13.20;;;5.30;;
5428;SDS011;2737;52.386;9.980;2022-07-23T06:20:14;10.80;;;4.67;;
5428;SDS011;2737;52.386;9.980;2022-07-23T06:22:41;5.37;;;4.60;;
5428;SDS011;2737;52.386;9.980;2022-07-23T06:25:08;7.80;;;4.33;;
5428;SDS011;2737;52.386;9.980;2022-07-23T06:27:35;10.90;;;4.93;;
5428;SDS011;2737;52.386;9.980;2022-07-23T06:30:03;14.07;;;5.50;;
5428;SDS011;2737;52.386;9.980;2022-07-23T06:32:34;9.20;;;4.63;;
5428;SDS011;2737;52.386;9.980;2022-07-23T06:35:01;9.10;;;5.20;;
5428;SDS011;2737;52.386;9.980;2022-07-23T06:37:29;8.90;;;5.23;;
5428;SDS011;2737;52.386;9.980;2022-07-23T06:39:56;10.27;;;5.20;;
5428;SDS011;2737;52.386;9.980;2022-07-23T06:42:23;7.50;;;5.60;;
5428;SDS011;2737;52.386;9.980;2022-07-23T06:44:50;7.63;;;4.40;;
5428;SDS011;2737;52.386;9.980;2022-07-23T06:47:17;8.07;;;4.10;;
5428;SDS011;2737;52.386;9.980;2022-07-23T06:49:45;9.13;;;4.50;;
5428;SDS011;2737;52.386;9.980;2022-07-23T06:52:12;9.73;;;4.70;;
5428;SDS011;2737;52.386;9.980;2022-07-23T06:54:39;10.77;;;4.63;;
5428;SDS011;2737;52.386;9.980;2022-07-23T06:57:07;9.80;;;5.00;;
5428;SDS011;2737;52.386;9.980;2022-07-23T06:59:34;9.70;;;4.47;;
5428;SDS011;2737;52.386;9.980;2022-07-23T07:02:05;9.00;;;3.53;;
5428;SDS011;2737;52.386;9.980;2022-07-23T07:04:32;8.20;;;4.20;;
5428;SDS011;2737;52.386;9.980;2022-07-23T07:07:01;9.30;;;4.33;;
5428;SDS011;2737;52.386;9.980;2022-07-23T07:09:28;13.30;;;4.50;;
5428;SDS011;2737;52.386;9.980;2022-07-23T07:11:55;6.33;;;4.20;;
5428;SDS011;2737;52.386;9.980;2022-07-23T07:14:22;7.77;;;4.70;;
5428;SDS011;2737;52.386;9.980;2022-07-23T07:16:50;6.37;;;4.50;;
5428;SDS011;2737;52.386;9.980;2022-07-23T07:19:17;7.20;;;4.63;;
5428;SDS011;2737;52.386;9.980;2022-07-23T07:21:44;12.53;;;4.40;;
5428;SDS011;2737;52.386;9.980;2022-07-23T07:24:12;10.33;;;4.20;;
5428;SDS011;2737;52.386;9.980;2022-07-23T07:26:39;11.70;;;4.10;;
5428;SDS011;2737;52.386;9.980;2022-07-23T07:29:07;11.77;;;3.40;;
5428;SDS011;2737;52.386;9.980;2022-07-23T07:31:34;4.67;;;3.47;;
5428;SDS011;2737;52.386;9.980;2022-07-23T07:34:01;8.97;;;3.10;;
5428;SDS011;2737;52.386;9.980;2022-07-23T07:36:28;4.60;;;2.90;;
5428;SDS011;2737;52.386;9.980;2022-07-23T07:38:55;4.90;;;3.30;;
5428;SDS011;2737;52.386;9.980;2022-07-23T07:41:24;6.33;;;3.10;;
5428;SDS011;2737;52.386;9.980;2022-07-23T07:43:51;6.63;;;2.97;;
5428;SDS011;2737;52.386;9.980;2022-07-23T07:46:18;3.00;;;2.30;;
5428;SDS011;2737;52.386;9.980;2022-07-23T07:48:46;4.33;;;2.40;;
5428;SDS011;2737;52.386;9.980;2022-07-23T07:51:13;4.43;;;2.40;;
5428;SDS011;2737;52.386;9.980;2022-07-23T07:53:40;2.80;;;2.20;;
5428;SDS011;2737;52.386;9.980;2022-07-23T07:56:07;8.17;;;3.20;;
5428;SDS011;2737;52.386;9.980;2022-07-23T07:58:36;3.50;;;2.30;;
5428;SDS011;2737;52.386;9.980;2022-07-23T08:01:03;6.07;;;2.27;;
5428;SDS011;2737;52.386;9.980;2022-07-23T08:03:30;6.03;;;2.50;;
5428;SDS011;2737;52.386;9.980;2022-07-23T08:05:57;4.77;;;2.50;;
5428;SDS011;2737;52.386;9.980;2022-07-23T08:08:24;2.90;;;2.00;;
5428;SDS011;2737;52.386;9.980;2022-07-23T08:10:52;5.40;;;2.30;;
5428;SDS011;2737;52.386;9.980;2022-07-23T08:13:19;7.70;;;2.10;;
5428;SDS011;2737;52.386;9.980;2022-07-23T08:15:47;5.17;;;1.80;;
5428;SDS011;2737;52.386;9.980;2022-07-23T08:18:14;3.47;;;1.70;;
5428;SDS011;2737;52.386;9.980;2022-07-23T08:20:42;3.90;;;2.13;;
5428;SDS011;2737;52.386;9.980;2022-07-23T08:23:09;4.40;;;1.63;;
5428;SDS011;2737;52.386;9.980;2022-07-23T08:25:37;4.50;;;2.30;;
5428;SDS011;2737;52.386;9.980;2022-07-23T08:28:06;5.67;;;1.93;;
5428;SDS011;2737;52.386;9.980;2022-07-23T08:30:35;6.00;;;2.00;;
5428;SDS011;2737;52.386;9.980;2022-07-23T08:33:06;4.13;;;2.73;;
5428;SDS011;2737;52.386;9.980;2022-07-23T08:35:36;4.13;;;1.80;;
5428;SDS011;2737;52.386;9.980;2022-07-23T08:38:05;3.13;;;1.70;;
5428;SDS011;2737;52.386;9.980;2022-07-23T08:40:34;2.40;;;1.60;;
5428;SDS011;2737;52.386;9.980;2022-07-23T08:43:03;2.90;;;1.80;;
5428;SDS011;2737;52.386;9.980;2022-07-23T08:45:35;2.73;;;1.93;;
5428;SDS011;2737;52.386;9.980;2022-07-23T08:48:04;2.73;;;1.60;;
5428;SDS011;2737;52.386;9.980;2022-07-23T08:50:35;3.80;;;1.90;;
5428;SDS011;2737;52.386;9.980;2022-07-23T08:53:04;3.93;;;2.00;;
5428;SDS011;2737;52.386;9.980;2022-07-23T08:55:33;5.33;;;2.20;;
5428;SDS011;2737;52.386;9.980;2022-07-23T08:58:01;2.83;;;1.93;;
5428;SDS011;2737;52.386;9.980;2022-07-23T09:00:28;7.90;;;2.27;;
5428;SDS011;2737;52.386;9.980;2022-07-23T09:02:59;9.20;;;2.40;;
5428;SDS011;2737;52.386;9.980;2022-07-23T09:05:27;6.30;;;2.13;;
5428;SDS011;2737;52.386;9.980;2022-07-23T09:08:03;3.10;;;2.20;;
5428;SDS011;2737;52.386;9.980;2022-07-23T09:10:34;4.47;;;2.00;;
5428;SDS011;2737;52.386;9.980;2022-07-23T09:16:09;4.70;;;1.80;;
5428;SDS011;2737;52.386;9.980;2022-07-23T09:18:40;3.87;;;1.80;;
5428;SDS011;2737;52.386;9.980;2022-07-23T09:21:15;6.07;;;1.60;;
5428;SDS011;2737;52.386;9.980;2022-07-23T09:23:45;1.50;;;1.40;;
5428;SDS011;2737;52.386;9.980;2022-07-23T09:26:17;7.53;;;1.63;;
5428;SDS011;2737;52.386;9.980;2022-07-23T09:28:50;5.63;;;1.50;;
5428;SDS011;2737;52.386;9.980;2022-07-23T09:31:19;1.90;;;1.30;;
5428;SDS011;2737;52.386;9.980;2022-07-23T09:33:46;1.93;;;1.37;;
5428;SDS011;2737;52.386;9.980;2022-07-23T09:36:15;2.80;;;1.50;;
5428;SDS011;2737;52.386;9.980;2022-07-23T09:38:52;3.23;;;1.90;;
5428;SDS011;2737;52.386;9.980;2022-07-23T09:41:19;5.80;;;1.83;;
5428;SDS011;2737;52.386;9.980;2022-07-23T09:43:54;4.20;;;2.10;;
5428;SDS011;2737;52.386;9.980;2022-07-23T09:46:22;6.37;;;1.90;;
5428;SDS011;2737;52.386;9.980;2022-07-23T09:48:52;3.43;;;1.80;;
5428;SDS011;2737;52.386;9.980;2022-07-23T09:51:23;4.37;;;1.70;;
5428;SDS011;2737;52.386;9.980;2022-07-23T09:53:57;4.90;;;2.00;;
5428;SDS011;2737;52.386;9.980;2022-07-23T09:56:24;5.47;;;1.53;;
5428;SDS011;2737;52.386;9.980;2022-07-23T09:58:54;4.07;;;2.13;;
5428;SDS011;2737;52.386;9.980;2022-07-23T10:01:29;3.43;;;1.20;;
5428;SDS011;2737;52.386;9.980;2022-07-23T10:03:58;3.00;;;1.10;;
5428;SDS011;2737;52.386;9.980;2022-07-23T10:06:28;2.90;;;1.47;;
5428;SDS011;2737;52.386;9.980;2022-07-23T10:08:58;3.40;;;1.40;;
5428;SDS011;2737;52.386;9.980;2022-07-23T10:11:26;5.63;;;2.03;;
5428;SDS011;2737;52.386;9.980;2022-07-23T10:13:55;4.17;;;1.97;;
5428;SDS011;2737;52.386;9.980;2022-07-23T10:16:23;4.45;;;1.90;;
5428;SDS011;2737;52.386;9.980;2022-07-23T10:18:51;6.23;;;1.50;;
5428;SDS011;2737;52.386;9.980;2022-07-23T10:21:24;4.28;;;1.27;;
5428;SDS011;2737;52.386;9.980;2022-07-23T10:24:10;3.13;;;1.40;;
5428;SDS011;2737;52.386;9.980;2022-07-23T10:26:46;4.90;;;1.70;;
5428;SDS011;2737;52.386;9.980;2022-07-23T10:29:22;3.23;;;1.47;;
5428;SDS011;2737;52.386;9.980;2022-07-23T10:32:00;2.30;;;1.53;;
5428;SDS011;2737;52.386;9.980;2022-07-23T10:34:34;2.50;;;1.70;;
5428;SDS011;2737;52.386;9.980;2022-07-23T10:37:11;3.37;;;1.30;;
5428;SDS011;2737;52.386;9.980;2022-07-23T10:39:43;1.93;;;1.33;;
5428;SDS011;2737;52.386;9.980;2022-07-23T10:42:12;3.30;;;1.63;;
5428;SDS011;2737;52.386;9.980;2022-07-23T10:44:40;6.00;;;1.80;;
5428;SDS011;2737;52.386;9.980;2022-07-23T10:47:09;3.70;;;1.80;;
5428;SDS011;2737;52.386;9.980;2022-07-23T10:49:48;2.90;;;1.50;;
5428;SDS011;2737;52.386;9.980;2022-07-23T10:52:21;5.30;;;1.70;;
5428;SDS011;2737;52.386;9.980;2022-07-23T10:54:50;5.13;;;1.67;;
5428;SDS011;2737;52.386;9.980;2022-07-23T10:57:19;4.40;;;2.10;;
5428;SDS011;2737;52.386;9.980;2022-07-23T11:02:41;2.10;;;1.60;;
5428;SDS011;2737;52.386;9.980;2022-07-23T11:05:11;3.90;;;2.22;;
5428;SDS011;2737;52.386;9.980;2022-07-23T11:10:42;2.80;;;1.63;;
5428;SDS011;2737;52.386;9.980;2022-07-23T11:13:26;1.57;;;1.30;;
5428;SDS011;2737;52.386;9.980;2022-07-23T11:16:14;2.58;;;1.50;;
5428;SDS011;2737;52.386;9.980;2022-07-23T11:18:58;1.90;;;1.40;;
5428;SDS011;2737;52.386;9.980;2022-07-23T11:21:48;6.93;;;1.43;;
5428;SDS011;2737;52.386;9.980;2022-07-23T11:24:24;3.73;;;1.57;;
5428;SDS011;2737;52.386;9.980;2022-07-23T11:26:56;4.60;;;1.38;;
5428;SDS011;2737;52.386;9.980;2022-07-23T11:29:40;3.92;;;1.42;;
5428;SDS011;2737;52.386;9.980;2022-07-23T11:32:11;2.53;;;1.50;;
5428;SDS011;2737;52.386;9.980;2022-07-23T11:34:53;1.67;;;1.37;;
5428;SDS011;2737;52.386;9.980;2022-07-23T11:37:28;7.10;;;1.45;;
5428;SDS011;2737;52.386;9.980;2022-07-23T11:40:00;5.27;;;1.70;;
5428;SDS011;2737;52.386;9.980;2022-07-23T11:42:33;5.37;;;1.37;;
5428;SDS011;2737;52.386;9.980;2022-07-23T11:45:01;3.17;;;1.55;;
5428;SDS011;2737;52.386;9.980;2022-07-23T11:47:28;1.50;;;1.40;;
5428;SDS011;2737;52.386;9.980;2022-07-23T11:49:55;6.15;;;2.30;;
5428;SDS011;2737;52.386;9.980;2022-07-23T11:52:24;1.80;;;1.35;;
5428;SDS011;2737;52.386;9.980;2022-07-23T11:54:52;3.40;;;1.25;;
5428;SDS011;2737;52.386;9.980;2022-07-23T11:57:23;3.50;;;1.35;;
5428;SDS011;2737;52.386;9.980;2022-07-23T11:59:52;3.30;;;1.13;;
5428;SDS011;2737;52.386;9.980;2022-07-23T12:02:22;2.72;;;1.33;;
5428;SDS011;2737;52.386;9.980;2022-07-23T12:04:50;2.38;;;1.30;;
5428;SDS011;2737;52.386;9.980;2022-07-23T12:07:29;1.98;;;1.25;;
5428;SDS011;2737;52.386;9.980;2022-07-23T12:09:58;1.30;;;1.20;;
5428;SDS011;2737;52.386;9.980;2022-07-23T12:12:27;2.97;;;1.30;;
5428;SDS011;2737;52.386;9.980;2022-07-23T12:15:02;3.28;;;1.30;;
5428;SDS011;2737;52.386;9.980;2022-07-23T12:17:31;3.45;;;1.20;;
5428;SDS011;2737;52.386;9.980;2022-07-23T12:20:00;3.72;;;1.08;;
5428;SDS011;2737;52.386;9.980;2022-07-23T12:22:33;2.97;;;1.10;;
5428;SDS011;2737;52.386;9.980;2022-07-23T12:25:02;2.50;;;1.00;;
5428;SDS011;2737;52.386;9.980;2022-07-23T12:27:32;4.40;;;1.30;;
5428;SDS011;2737;52.386;9.980;2022-07-23T12:30:14;1.65;;;1.02;;
5428;SDS011;2737;52.386;9.980;2022-07-23T12:32:46;1.92;;;1.10;;
5428;SDS011;2737;52.386;9.980;2022-07-23T12:35:14;2.75;;;1.30;;
5428;SDS011;2737;52.386;9.980;2022-07-23T12:37:42;3.30;;;1.30;;
5428;SDS011;2737;52.386;9.980;2022-07-23T12:40:24;2.45;;;1.00;;
5428;SDS011;2737;52.386;9.980;2022-07-23T12:42:55;1.90;;;1.20;;
5428;SDS011;2737;52.386;9.980;2022-07-23T12:45:23;2.00;;;1.10;;
5428;SDS011;2737;52.386;9.980;2022-07-23T12:47:52;3.83;;;1.20;;
5428;SDS011;2737;52.386;9.980;2022-07-23T12:50:34;4.20;;;1.15;;
5428;SDS011;2737;52.386;9.980;2022-07-23T12:53:06;3.15;;;1.00;;
5428;SDS011;2737;52.386;9.980;2022-07-23T12:55:34;1.83;;;1.10;;
5428;SDS011;2737;52.386;9.980;2022-07-23T12:58:04;4.15;;;1.00;;
5428;SDS011;2737;52.386;9.980;2022-07-23T13:00:33;2.72;;;0.90;;
5428;SDS011;2737;52.386;9.980;2022-07-23T13:03:37;2.55;;;1.17;;
5428;SDS011;2737;52.386;9.980;2022-07-23T13:06:07;3.30;;;0.93;;
5428;SDS011;2737;52.386;9.980;2022-07-23T13:08:36;6.13;;;1.52;;
5428;SDS011;2737;52.386;9.980;2022-07-23T13:11:04;1.23;;;0.98;;
5428;SDS011;2737;52.386;9.980;2022-07-23T13:13:34;1.67;;;0.80;;
5428;SDS011;2737;52.386;9.980;2022-07-23T13:16:02;1.15;;;1.08;;
5428;SDS011;2737;52.386;9.980;2022-07-23T13:18:29;2.40;;;1.10;;
5428;SDS011;2737;52.386;9.980;2022-07-23T13:20:58;1.13;;;1.00;;
5428;SDS011;2737;52.386;9.980;2022-07-23T13:23:27;3.15;;;1.08;;
5428;SDS011;2737;52.386;9.980;2022-07-23T13:25:54;2.42;;;1.10;;
5428;SDS011;2737;52.386;9.980;2022-07-23T13:28:21;3.05;;;0.90;;
5428;SDS011;2737;52.386;9.980;2022-07-23T13:30:50;2.42;;;0.90;;
5428;SDS011;2737;52.386;9.980;2022-07-23T13:33:20;1.27;;;1.08;;
5428;SDS011;2737;52.386;9.980;2022-07-23T13:35:49;2.75;;;0.98;;
5428;SDS011;2737;52.386;9.980;2022-07-23T13:38:17;2.47;;;0.90;;
5428;SDS011;2737;52.386;9.980;2022-07-23T13:40:45;5.00;;;1.35;;
5428;SDS011;2737;52.386;9.980;2022-07-23T13:43:14;4.38;;;1.00;;
5428;SDS011;2737;52.386;9.980;2022-07-23T13:45:44;1.67;;;1.00;;
5428;SDS011;2737;52.386;9.980;2022-07-23T13:48:13;8.38;;;1.05;;
5428;SDS011;2737;52.386;9.980;2022-07-23T13:50:41;7.28;;;1.35;;
5428;SDS011;2737;52.386;9.980;2022-07-23T13:53:10;1.25;;;1.00;;
5428;SDS011;2737;52.386;9.980;2022-07-23T13:55:40;1.38;;;0.93;;
5428;SDS011;2737;52.386;9.980;2022-07-23T13:58:08;1.63;;;0.70;;
5428;SDS011;2737;52.386;9.980;2022-07-23T14:00:37;1.17;;;0.85;;
5428;SDS011;2737;52.386;9.980;2022-07-23T14:03:05;1.10;;;0.93;;
5428;SDS011;2737;52.386;9.980;2022-07-23T14:05:34;4.63;;;1.00;;
5428;SDS011;2737;52.386;9.980;2022-07-23T14:08:01;5.38;;;0.82;;
5428;SDS011;2737;52.386;9.980;2022-07-23T14:10:28;1.25;;;0.82;;
5428;SDS011;2737;52.386;9.980;2022-07-23T14:12:56;2.03;;;0.88;;
5428;SDS011;2737;52.386;9.980;2022-07-23T14:15:24;4.18;;;1.00;;
5428;SDS011;2737;52.386;9.980;2022-07-23T14:17:53;1.70;;;1.13;;
5428;SDS011;2737;52.386;9.980;2022-07-23T14:20:20;1.40;;;0.80;;
5428;SDS011;2737;52.386;9.980;2022-07-23T14:22:49;1.35;;;0.90;;
5428;SDS011;2737;52.386;9.980;2022-07-23T14:25:16;2.05;;;0.70;;
5428;SDS011;2737;52.386;9.980;2022-07-23T14:27:44;5.47;;;0.90;;
5428;SDS011;2737;52.386;9.980;2022-07-23T14:30:12;3.78;;;1.20;;
5428;SDS011;2737;52.386;9.980;2022-07-23T14:32:40;1.65;;;1.00;;
5428;SDS011;2737;52.386;9.980;2022-07-23T14:35:07;2.25;;;0.80;;
5428;SDS011;2737;52.386;9.980;2022-07-23T14:37:35;1.50;;;0.80;;
5428;SDS011;2737;52.386;9.980;2022-07-23T14:40:04;4.43;;;1.17;;
5428;SDS011;2737;52.386;9.980;2022-07-23T14:42:32;1.00;;;0.90;;
5428;SDS011;2737;52.386;9.980;2022-07-23T14:44:59;2.80;;;1.02;;
5428;SDS011;2737;52.386;9.980;2022-07-23T14:47:26;3.30;;;1.00;;
5428;SDS011;2737;52.386;9.980;2022-07-23T14:49:53;1.85;;;1.02;;
5428;SDS011;2737;52.386;9.980;2022-07-23T14:52:20;1.40;;;0.90;;
5428;SDS011;2737;52.386;9.980;2022-07-23T14:54:47;3.35;;;1.17;;
5428;SDS011;2737;52.386;9.980;2022-07-23T14:57:16;2.10;;;0.90;;
5428;SDS011;2737;52.386;9.980;2022-07-23T14:59:43;1.52;;;0.70;;
5428;SDS011;2737;52.386;9.980;2022-07-23T15:02:10;3.85;;;1.05;;
5428;SDS011;2737;52.386;9.980;2022-07-23T15:04:37;1.83;;;0.98;;
5428;SDS011;2737;52.386;9.980;2022-07-23T15:07:04;1.30;;;1.10;;
5428;SDS011;2737;52.386;9.980;2022-07-23T15:09:31;1.00;;;0.80;;
5428;SDS011;2737;52.386;9.980;2022-07-23T15:11:58;3.72;;;0.90;;
5428;SDS011;2737;52.386;9.980;2022-07-23T15:14:27;1.15;;;0.85;;
5428;SDS011;2737;52.386;9.980;2022-07-23T15:16:54;2.40;;;0.98;;
5428;SDS011;2737;52.386;9.980;2022-07-23T15:19:21;3.80;;;0.85;;
5428;SDS011;2737;52.386;9.980;2022-07-23T15:21:48;4.10;;;0.90;;
5428;SDS011;2737;52.386;9.980;2022-07-23T15:24:15;1.85;;;0.90;;
5428;SDS011;2737;52.386;9.980;2022-07-23T15:26:42;1.45;;;0.70;;
5428;SDS011;2737;52.386;9.980;2022-07-23T15:29:10;8.80;;;0.93;;
5428;SDS011;2737;52.386;9.980;2022-07-23T15:31:38;2.30;;;0.90;;